Flight Track Log - Related Links

Times and Time Zones

All times are in EDT time to prevent confusion due to time zone crossing. See the FIV521 flight status page for this flight to view local times or setup timezone preferences in your user account.


Time Position Orientation Groundspeed Altitude Reporting Facility
EDT Latitude Longitude Course Direction KTS MPH feet Rate Location/Type
Wed 12:39:20 PM 42.3667 -70.9833 90° East 165 190 1,000  Level KA90
Wed 12:40:14 PM 42.3667 -70.9333 90° East 162 186 3,600 1,579 Climbing KA90
Wed 12:41:14 PM 42.3833 -70.8500 75° East 211 243 4,000 655 Climbing KA90
Wed 12:42:04 PM 42.3925 -70.7900 78° East 249 287 4,800 2,131 Climbing Boston Center
Wed 12:43:01 PM 42.3436 -70.7211 134° Southeast 218 251 7,800 2,593 Climbing Boston Center
Wed 12:44:02 PM 42.2647 -70.7400 190° South 205 236 9,900 2,331 Climbing Boston Center
Wed 12:45:02 PM 42.2139 -70.8283 232° Southwest 219 252 12,500 2,050 Climbing Boston Center
Wed 12:46:02 PM 42.1944 -70.9353 256° West 263 303 14,000 843 Climbing Boston Center
Wed 12:47:03 PM 42.1958 -71.0417 271° West 301 346 14,200 1,587 Climbing Boston Center
Wed 12:48:03 PM 42.1931 -71.1594 268° West 307 353 17,200 2,695 Climbing Boston Center
Wed 12:49:01 PM 42.1983 -71.2658 274° West 282 325 19,500 2,168 Climbing Boston Center
Wed 12:50:02 PM 42.1953 -71.3697 268° West 282 325 21,500 1,967 Climbing Boston Center
Wed 12:51:03 PM 42.1922 -71.4844 268° West 294 338 23,500 2,118 Climbing Boston Center
Wed 12:52:01 PM 42.1867 -71.5939 266° West 299 344 25,700 1,932 Climbing Boston Center
Wed 12:53:01 PM 42.1853 -71.6892 269° West 305 351 27,300 1,438 Climbing Boston Center
Wed 12:54:02 PM 42.1842 -71.8322 269° West 316 364 28,600 1,672 Climbing Boston Center
Wed 12:55:03 PM 42.1806 -71.9553 268° West 321 369 30,700 2,083 Climbing Boston Center
Wed 12:56:03 PM 42.1789 -72.0675 269° West 321 369 32,800 2,034 Climbing Boston Center
Wed 12:57:01 PM 42.1750 -72.1739 267° West 307 353 34,700 1,627 Climbing Boston Center
Wed 12:58:01 PM 42.1731 -72.2833 269° West 297 342 36,000 645 Climbing Boston Center
Wed 12:59:02 PM 42.1692 -72.4008 267° West 297 342 36,000  Level Boston Center
Wed 01:00:04 PM 42.1669 -72.5017 268° West 312 359 36,000 101 Level Boston Center
Wed 01:01:01 PM 42.1628 -72.6389 268° West 332 382 36,200 814 Climbing Boston Center
Wed 01:02:02 PM 42.1394 -72.7619 256° West 343 395 37,600 893 Climbing Boston Center
Wed 01:03:02 PM 42.0767 -72.8653 231° Southwest 337 388 38,000 198 Climbing Boston Center
Wed 01:04:03 PM 42.0136 -72.9708 231° Southwest 350 403 38,000  Level Boston Center
Wed 01:05:03 PM 41.9422 -73.0847 230° Southwest 377 434 38,000  Level Boston Center
Wed 01:06:13 PM 41.8458 -73.1675 213° Southwest 396 456 38,000  Level Boston Center
Wed 01:07:13 PM 41.7283 -73.2633 211° Southwest 409 471 38,000  Level Boston Center
Wed 01:08:13 PM 41.6381 -73.3511 216° Southwest 415 478 38,000  Level Boston Center
Wed 01:10:22 PM 41.4819 -73.5931 229° Southwest 390 449 38,000  Level New York Center
Wed 01:11:23 PM 41.4106 -73.7006 228° Southwest 390 449 38,000  Level New York Center
Wed 01:12:24 PM 41.3411 -73.8081 229° Southwest 395 455 38,000  Level New York Center
Wed 01:13:22 PM 41.2697 -73.9153 228° Southwest 400 460 38,000  Level New York Center
Wed 01:14:24 PM 41.1981 -74.0250 229° Southwest 400 460 38,000  Level New York Center
Wed 01:15:24 PM 41.1303 -74.1344 231° Southwest 400 460 38,000  Level New York Center
Wed 01:16:24 PM 41.0586 -74.2411 228° Southwest 395 455 38,000  Level New York Center
Wed 01:17:22 PM 40.9908 -74.3503 231° Southwest 395 455 38,000  Level New York Center
Wed 01:18:22 PM 40.9228 -74.4592 230° Southwest 395 455 38,000  Level New York Center
Wed 01:19:24 PM 40.8547 -74.5653 230° Southwest 390 449 38,000  Level New York Center
Wed 01:20:24 PM 40.7867 -74.6739 230° Southwest 390 449 38,000  Level New York Center
Wed 01:21:23 PM 40.7183 -74.7822 230° Southwest 390 449 38,000  Level New York Center
Wed 01:22:24 PM 40.6522 -74.8906 231° Southwest 390 449 38,000  Level New York Center
Wed 01:23:23 PM 40.5839 -74.9983 230° Southwest 390 449 38,000  Level New York Center
Wed 01:24:22 PM 40.5175 -75.1061 231° Southwest 390 449 38,000  Level New York Center
Wed 01:25:23 PM 40.4467 -75.2136 229° Southwest 390 449 38,000  Level New York Center
Wed 01:26:23 PM 40.3800 -75.3211 231° Southwest 390 449 38,000  Level New York Center
Wed 01:27:22 PM 40.3111 -75.4308 231° Southwest 390 449 38,000  Level New York Center
Wed 01:28:23 PM 40.2425 -75.5350 229° Southwest 390 449 38,000  Level New York Center
Wed 01:29:23 PM 40.1817 -75.6475 235° Southwest 390 449 38,000  Level New York Center
Wed 01:30:25 PM 40.1247 -75.7631 237° Southwest 385 443 38,000  Level New York Center
Wed 01:31:23 PM 40.0678 -75.8758 237° Southwest 385 443 38,000  Level New York Center
Wed 01:32:23 PM 40.0064 -75.9906 235° Southwest 385 443 38,000  Level New York Center
Wed 01:33:24 PM 39.9469 -76.1078 237° Southwest 385 443 38,000  Level New York Center
Wed 01:35:38 PM 39.8194 -76.3586 237° Southwest 377 434 38,000  Level Washington Center
Wed 01:36:38 PM 39.7647 -76.4742 238° Southwest 382 440 38,000  Level Washington Center
Wed 01:37:38 PM 39.7011 -76.5894 234° Southwest 387 445 38,000  Level Washington Center
Wed 01:38:38 PM 39.6397 -76.7017 235° Southwest 393 452 38,000  Level Washington Center
Wed 01:39:38 PM 39.5803 -76.8167 236° Southwest 393 452 38,000  Level Washington Center
Wed 01:40:38 PM 39.5208 -76.9286 235° Southwest 388 447 38,000  Level Washington Center
Wed 01:41:38 PM 39.4403 -77.0400 227° Southwest 394 453 38,000  Level Washington Center
Wed 01:42:38 PM 39.3600 -77.1217 218° Southwest 422 486 38,000  Level Washington Center
Wed 01:43:38 PM 39.2650 -77.2214 219° Southwest 422 486 38,000  Level Washington Center
Wed 01:44:38 PM 39.1992 -77.3192 229° Southwest 397 457 38,000  Level Washington Center
Wed 01:45:38 PM 39.1161 -77.4347 227° Southwest 407 468 38,000  Level Washington Center
Wed 01:46:38 PM 39.0500 -77.5294 228° Southwest 407 468 38,000  Level Washington Center
Wed 01:47:38 PM 38.9689 -77.6447 228° Southwest 407 468 38,000  Level Washington Center
Wed 01:49:38 PM 38.8256 -77.8433 227° Southwest 412 474 38,000  Level Washington Center
Wed 01:50:38 PM 38.7419 -77.9606 228° Southwest 407 468 38,000  Level Washington Center
Wed 01:51:38 PM 38.6736 -78.0514 226° Southwest 412 474 38,000  Level Washington Center
Wed 01:52:38 PM 38.5919 -78.1681 228° Southwest 412 474 38,000  Level Washington Center
Wed 01:53:38 PM 38.5250 -78.2642 228° Southwest 412 474 38,000  Level Washington Center
Wed 01:54:38 PM 38.4411 -78.3778 227° Southwest 412 474 38,000  Level Washington Center
Wed 01:55:38 PM 38.3678 -78.4808 228° Southwest 412 474 38,000  Level Washington Center
Wed 01:56:38 PM 38.2989 -78.5733 227° Southwest 402 463 38,000  Level Washington Center
Wed 01:57:38 PM 38.2211 -78.6839 228° Southwest 402 463 38,000  Level Washington Center
Wed 01:58:38 PM 38.1539 -78.7764 227° Southwest 397 457 38,000  Level Washington Center
Wed 01:59:38 PM 38.0806 -78.8733 226° Southwest 397 457 38,000  Level Washington Center
Wed 02:00:38 PM 38.0047 -78.9756 227° Southwest 392 451 38,000  Level Washington Center
Wed 02:01:38 PM 37.9222 -79.0850 226° Southwest 387 445 38,000  Level Washington Center
Wed 02:02:38 PM 37.8606 -79.1928 234° Southwest 387 445 38,000  Level Washington Center
Wed 02:03:38 PM 37.8050 -79.3083 239° Southwest 387 445 38,000  Level Washington Center
Wed 02:04:38 PM 37.7492 -79.4211 238° Southwest 387 445 38,000  Level Washington Center
Wed 02:05:38 PM 37.6958 -79.5208 236° Southwest 376 433 38,000  Level Washington Center
Wed 02:06:38 PM 37.6356 -79.6461 239° Southwest 384 442 38,000  Level Washington Center
Wed 02:07:38 PM 37.5842 -79.7456 237° Southwest 384 442 38,000  Level Washington Center
Wed 02:08:38 PM 37.5211 -79.8731 238° Southwest 388 447 38,000  Level Washington Center
Wed 02:09:38 PM 37.4650 -79.9850 238° Southwest 394 453 38,000  Level Washington Center
Wed 02:10:38 PM 37.4133 -80.0842 237° Southwest 394 453 38,000  Level Washington Center
Wed 02:12:17 PM 37.3119 -80.2736 236° Southwest 400 460 38,000  Level Atlanta Center
Wed 02:13:17 PM 37.2531 -80.3886 237° Southwest 400 460 38,000  Level Atlanta Center
Wed 02:14:17 PM 37.1939 -80.5008 237° Southwest 400 460 38,000  Level Atlanta Center
Wed 02:15:17 PM 37.1386 -80.6100 238° Southwest 395 455 38,000  Level Atlanta Center
Wed 02:16:17 PM 37.0850 -80.7111 236° Southwest 395 455 38,000  Level Atlanta Center
Wed 02:17:17 PM 37.0294 -80.8200 237° Southwest 390 449 38,000  Level Atlanta Center
Wed 02:18:17 PM 36.9700 -80.9369 238° Southwest 390 449 38,000  Level Atlanta Center
Wed 02:19:17 PM 36.9064 -81.0586 237° Southwest 390 449 38,000  Level Atlanta Center
Wed 02:20:17 PM 36.8486 -81.1700 237° Southwest 390 449 38,000  Level Atlanta Center
Wed 02:21:17 PM 36.7883 -81.2783 235° Southwest 390 449 38,000  Level Atlanta Center
Wed 02:22:17 PM 36.7406 -81.3783 239° Southwest 380 437 38,000  Level Atlanta Center
Wed 02:23:17 PM 36.6844 -81.4864 237° Southwest 380 437 38,000  Level Atlanta Center
Wed 02:24:17 PM 36.6242 -81.5994 236° Southwest 385 443 38,000  Level Atlanta Center
Wed 02:25:17 PM 36.5639 -81.7075 235° Southwest 385 443 38,000  Level Atlanta Center
Wed 02:26:17 PM 36.5075 -81.8200 238° Southwest 385 443 38,000  Level Atlanta Center
Wed 02:27:17 PM 36.4447 -81.9328 235° Southwest 390 449 38,000  Level Atlanta Center
Wed 02:28:17 PM 36.3842 -82.0453 236° Southwest 390 449 38,000  Level Atlanta Center
Wed 02:29:17 PM 36.3233 -82.1575 236° Southwest 401 461 38,000  Level Atlanta Center
Wed 02:30:17 PM 36.2625 -82.2697 236° Southwest 401 461 38,000 200 Level Atlanta Center
Wed 02:31:17 PM 36.1953 -82.3922 236° Southwest 401 461 38,400 1,000 Climbing Atlanta Center
Wed 02:32:17 PM 36.1383 -82.4961 236° Southwest 395 455 40,000 800 Climbing Atlanta Center
Wed 02:33:17 PM 36.0811 -82.6025 236° Southwest 380 437 40,000  Level Atlanta Center
Wed 02:34:17 PM 36.0219 -82.7089 236° Southwest 380 437 40,000  Level Atlanta Center
Wed 02:35:17 PM 35.9644 -82.8150 236° Southwest 380 437 40,000  Level Atlanta Center
Wed 02:36:17 PM 35.9050 -82.9211 235° Southwest 380 437 40,000  Level Atlanta Center
Wed 02:37:17 PM 35.8475 -83.0267 236° Southwest 380 437 40,000  Level Atlanta Center
Wed 02:38:17 PM 35.7881 -83.1350 236° Southwest 380 437 40,000  Level Atlanta Center
Wed 02:39:17 PM 35.7386 -83.2303 237° Southwest 373 429 40,000  Level Atlanta Center
Wed 02:40:17 PM 35.6786 -83.3383 236° Southwest 373 429 40,000  Level Atlanta Center
Wed 02:41:17 PM 35.6167 -83.4461 235° Southwest 379 436 40,000  Level Atlanta Center
Wed 02:42:17 PM 35.5567 -83.5536 236° Southwest 384 442 40,000  Level Atlanta Center
Wed 02:43:17 PM 35.4967 -83.6611 236° Southwest 384 442 40,000  Level Atlanta Center
Wed 02:44:17 PM 35.4342 -83.7661 234° Southwest 384 442 40,000  Level Atlanta Center
Wed 02:45:17 PM 35.3739 -83.8758 236° Southwest 384 442 40,000  Level Atlanta Center
Wed 02:46:17 PM 35.3114 -83.9853 235° Southwest 384 442 40,000  Level Atlanta Center
Wed 02:47:17 PM 35.2508 -84.0922 235° Southwest 384 442 40,000  Level Atlanta Center
Wed 02:48:17 PM 35.1883 -84.2014 235° Southwest 390 449 40,000  Level Atlanta Center
Wed 02:49:17 PM 35.1233 -84.3131 235° Southwest 395 455 40,000  Level Atlanta Center
Wed 02:50:17 PM 35.0606 -84.4244 235° Southwest 400 460 40,000  Level Atlanta Center
Wed 02:51:17 PM 34.9975 -84.5333 235° Southwest 400 460 40,000  Level Atlanta Center
Wed 02:52:17 PM 34.9364 -84.6417 235° Southwest 400 460 40,000  Level Atlanta Center
Wed 02:53:17 PM 34.8733 -84.7478 234° Southwest 400 460 40,000  Level Atlanta Center
Wed 02:54:17 PM 34.8122 -84.8558 235° Southwest 400 460 40,000  Level Atlanta Center
Wed 02:55:17 PM 34.7467 -84.9639 234° Southwest 400 460 40,000  Level Atlanta Center
Wed 02:56:17 PM 34.6811 -85.0794 235° Southwest 400 460 40,000  Level Atlanta Center
Wed 02:57:17 PM 34.6175 -85.1872 234° Southwest 392 451 40,000  Level Atlanta Center
Wed 02:58:17 PM 34.5539 -85.2922 234° Southwest 397 457 40,000  Level Atlanta Center
Wed 02:59:17 PM 34.4942 -85.3972 235° Southwest 397 457 40,000  Level Atlanta Center
Wed 03:00:17 PM 34.4306 -85.4994 233° Southwest 397 457 40,000  Level Atlanta Center
Wed 03:01:17 PM 34.3708 -85.6092 237° Southwest 391 450 40,000  Level Atlanta Center
Wed 03:02:17 PM 34.3089 -85.7111 234° Southwest 391 450 40,000  Level Atlanta Center
Wed 03:03:17 PM 34.2533 -85.8031 234° Southwest 385 443 40,000  Level Atlanta Center
Wed 03:04:17 PM 34.1850 -85.9094 232° Southwest 378 435 40,000  Level Atlanta Center
Wed 03:05:17 PM 34.1250 -86.0136 235° Southwest 378 435 40,000  Level Atlanta Center
Wed 03:06:17 PM 34.0628 -86.1150 233° Southwest 378 435 40,000  Level Atlanta Center
Wed 03:07:17 PM 34.0006 -86.2164 234° Southwest 378 435 40,000  Level Atlanta Center
Wed 03:08:17 PM 33.9381 -86.3197 234° Southwest 378 435 40,000  Level Atlanta Center
Wed 03:09:17 PM 33.8756 -86.4208 233° Southwest 378 435 40,000  Level Atlanta Center
Wed 03:10:17 PM 33.8131 -86.5239 234° Southwest 378 435 40,000  Level Atlanta Center
Wed 03:11:17 PM 33.7483 -86.6297 234° Southwest 378 435 40,000  Level Atlanta Center
Wed 03:12:17 PM 33.6856 -86.7300 233° Southwest 378 435 40,000  Level Atlanta Center
Wed 03:13:17 PM 33.6206 -86.8328 233° Southwest 378 435 40,000  Level Atlanta Center
Wed 03:14:17 PM 33.5578 -86.9381 234° Southwest 383 441 40,000  Level Atlanta Center
Wed 03:15:17 PM 33.4925 -87.0428 233° Southwest 383 441 40,000  Level Atlanta Center
Wed 03:16:17 PM 33.4294 -87.1453 234° Southwest 383 441 40,000  Level Atlanta Center
Wed 03:17:17 PM 33.3642 -87.2472 233° Southwest 389 448 40,000  Level Atlanta Center
Wed 03:18:17 PM 33.3011 -87.3494 234° Southwest 389 448 40,000  Level Atlanta Center
Wed 03:20:05 PM 33.1828 -87.5425 234° Southwest 389 448 40,000  Level Memphis Center
Wed 03:21:05 PM 33.1183 -87.6439 233° Southwest 390 449 40,000  Level Memphis Center
Wed 03:22:05 PM 33.0556 -87.7425 233° Southwest 390 449 40,000  Level Memphis Center
Wed 03:23:05 PM 32.9911 -87.8508 235° Southwest 390 449 40,000  Level Memphis Center
Wed 03:24:05 PM 32.9344 -87.9414 233° Southwest 390 449 40,000  Level Memphis Center
Wed 03:25:05 PM 32.8694 -88.0447 233° Southwest 390 449 40,000  Level Memphis Center
Wed 03:26:05 PM 32.8278 -88.1594 247° West 385 443 40,000  Level Memphis Center
Wed 03:27:05 PM 32.7858 -88.2742 247° West 385 443 40,000  Level Memphis Center
Wed 03:28:05 PM 32.7397 -88.3914 245° Southwest 385 443 40,000  Level Memphis Center
Wed 03:29:05 PM 32.6978 -88.5083 247° West 385 443 40,000  Level Memphis Center
Wed 03:30:05 PM 32.6556 -88.6225 246° West 385 443 40,000  Level Memphis Center
Wed 03:31:05 PM 32.6111 -88.7369 245° Southwest 385 443 40,000  Level Memphis Center
Wed 03:32:05 PM 32.5667 -88.8561 246° West 385 443 40,000 -150 Level Memphis Center
Wed 03:33:05 PM 32.5181 -88.9850 246° West 385 443 39,700 -850 Descending Memphis Center
Wed 03:34:05 PM 32.4775 -89.0964 247° West 380 437 38,300 -1,650 Descending Memphis Center
Wed 03:35:05 PM 32.4328 -89.2078 245° Southwest 380 437 36,400 -1,900 Descending Memphis Center
Wed 03:36:05 PM 32.3919 -89.3192 247° West 380 437 34,500 -2,000 Descending Memphis Center
Wed 03:37:05 PM 32.3469 -89.4353 245° Southwest 380 437 32,400 -2,050 Descending Memphis Center
Wed 03:38:05 PM 32.3019 -89.5511 245° Southwest 380 437 30,400 -2,000 Descending Memphis Center
Wed 03:39:05 PM 32.2567 -89.6694 246° West 385 443 28,400 -2,100 Descending Memphis Center
Wed 03:40:05 PM 32.2114 -89.7925 247° West 397 457 26,200 -2,150 Descending Memphis Center
Wed 03:41:05 PM 32.1617 -89.9156 245° Southwest 403 464 24,100 -2,050 Descending Memphis Center
Wed 03:42:05 PM 32.1161 -90.0336 246° West 403 464 22,100 -2,000 Descending Memphis Center
Wed 03:43:05 PM 32.0706 -90.1489 245° Southwest 398 458 20,100 -1,950 Descending Memphis Center
Wed 03:44:05 PM 32.0289 -90.2594 246° West 385 443 18,200 -1,550 Descending Memphis Center
Wed 03:45:05 PM 31.9850 -90.3672 244° Southwest 379 436 17,000 -1,200 Descending Memphis Center
Wed 03:46:05 PM 31.9411 -90.4772 245° Southwest 379 436 15,800 -1,931 Descending Memphis Center
Wed 03:48:27 PM 31.8469 -90.7158 245° Southwest 354 407 10,500 -2,029 Descending Houston Center
Wed 03:49:29 PM 31.8125 -90.8003 244° Southwest 286 329 8,900 -1,452 Descending Houston Center
Wed 03:50:31 PM 31.7831 -90.8775 246° West 275 316 7,500 -1,355 Descending Houston Center
Wed 03:51:33 PM 31.7492 -90.9611 245° Southwest 271 312 6,100 -726 Descending Houston Center
Wed 03:52:35 PM 31.7214 -91.0361 246° West 262 302 6,000 -192 Descending Houston Center
Wed 03:53:38 PM 31.6931 -91.0986 242° Southwest 233 268 5,700 -286 Descending Houston Center

Login

Don't have an account? Register now (free) for customized features, flight alerts, and more!